Terminal Aerodrome Forecast
Issued by NWS

Home | Current Version | Previous Version | Text Only | Print | Product List | Glossary On
Versions: 1 2 3 4 5 6 7 8 9 10 11 12 13 14
000
FTUS46 KSTO 211100
TAFSCK
TAF
KSCK 211121Z 2112/2212 VRB05KT P6SM SKC
     FM211900 31011KT P6SM SCT250
     FM220300 28007KT P6SM SCT250=

USA.gov is the U.S. government's official web portal to all federal, state and local government web resources and services.